createdAt,value
2024-01-11T00:02:46.292Z,1013.5
2024-01-11T00:04:46.897Z,1013.5
2024-01-11T00:07:46.286Z,1013.5
2024-01-11T00:09:47.128Z,1013.5
2024-01-11T00:12:46.274Z,1013.5
2024-01-11T00:14:46.312Z,1013.5
2024-01-11T00:17:47.003Z,1013.5
2024-01-11T00:20:46.322Z,1013.4
2024-01-11T00:23:46.453Z,1013.4
2024-01-11T00:26:46.264Z,1013.5
2024-01-11T00:28:47.018Z,1013.5
2024-01-11T00:31:46.319Z,1013.5
2024-01-11T00:34:46.902Z,1013.5
2024-01-11T00:37:46.942Z,1013.6
2024-01-11T00:40:46.294Z,1013.5
2024-01-11T00:42:46.286Z,1013.5
2024-01-11T00:44:46.482Z,1013.5
2024-01-11T00:47:46.442Z,1013.5
2024-01-11T00:50:46.361Z,1013.5
2024-01-11T00:52:46.511Z,1013.5
2024-01-11T00:55:46.333Z,1013.5
2024-01-11T00:58:46.341Z,1013.5
2024-01-11T01:00:46.455Z,1013.5
2024-01-11T01:03:46.322Z,1013.5
2024-01-11T01:05:46.440Z,1013.5
2024-01-11T01:08:46.728Z,1013.5
2024-01-11T01:11:46.282Z,1013.5
2024-01-11T01:13:46.300Z,1013.5
2024-01-11T01:15:47.072Z,1013.5
2024-01-11T01:18:46.330Z,1013.5
2024-01-11T01:21:46.666Z,1013.5
2024-01-11T01:23:46.699Z,1013.5
2024-01-11T01:26:46.333Z,1013.5
2024-01-11T01:28:46.932Z,1013.6
2024-01-11T01:31:47.087Z,1013.6
2024-01-11T01:34:47.859Z,1013.6
2024-01-11T01:36:46.523Z,1013.6
2024-01-11T01:39:46.355Z,1013.7
2024-01-11T01:41:46.379Z,1013.7
2024-01-11T01:44:46.325Z,1013.7
2024-01-11T01:47:46.370Z,1013.7
2024-01-11T01:49:46.339Z,1013.8
2024-01-11T01:51:46.976Z,1013.7
2024-01-11T01:54:46.348Z,1013.8
2024-01-11T01:57:46.794Z,1013.8
2024-01-11T02:00:46.394Z,1013.7
2024-01-11T02:02:46.885Z,1013.9
2024-01-11T02:04:46.958Z,1013.9
2024-01-11T02:06:47.267Z,1013.8
2024-01-11T02:09:46.237Z,1013.9
2024-01-11T02:11:46.767Z,1013.8
2024-01-11T02:14:46.313Z,1013.9
2024-01-11T02:16:46.279Z,1013.8
2024-01-11T02:19:46.901Z,1013.9
2024-01-11T02:22:46.282Z,1013.9
2024-01-11T02:24:46.404Z,1013.9
2024-01-11T02:27:46.310Z,1013.8
2024-01-11T02:30:46.450Z,1013.8
2024-01-11T02:33:46.316Z,1013.8
2024-01-11T02:35:47.879Z,1013.7
2024-01-11T02:38:47.062Z,1013.7
2024-01-11T02:41:47.068Z,1013.7
2024-01-11T02:44:46.299Z,1013.7
2024-01-11T02:47:46.418Z,1013.6
2024-01-11T02:50:46.349Z,1013.7
2024-01-11T02:52:46.785Z,1013.7
2024-01-11T02:55:46.687Z,1013.6
2024-01-11T02:58:46.442Z,1013.6
2024-01-11T03:01:46.683Z,1013.7
2024-01-11T03:04:46.315Z,1013.6
2024-01-11T03:06:46.512Z,1013.6
2024-01-11T03:09:46.320Z,1013.6
2024-01-11T03:12:46.260Z,1013.6
2024-01-11T03:14:47.114Z,1013.6
2024-01-11T03:17:47.222Z,1013.6
2024-01-11T03:20:46.502Z,1013.7
2024-01-11T03:22:46.494Z,1013.7
2024-01-11T03:25:46.295Z,1013.7
2024-01-11T03:27:46.298Z,1013.7
2024-01-11T03:29:46.669Z,1013.7
2024-01-11T03:32:46.611Z,1013.7
2024-01-11T03:35:46.352Z,1013.6
2024-01-11T03:37:47.081Z,1013.6
2024-01-11T03:40:46.767Z,1013.6
2024-01-11T03:43:46.243Z,1013.6
2024-01-11T03:45:46.998Z,1013.6
2024-01-11T03:48:46.434Z,1013.6
2024-01-11T03:51:46.999Z,1013.6
2024-01-11T03:54:46.301Z,1013.6
2024-01-11T03:56:46.292Z,1013.5
2024-01-11T03:59:46.344Z,1013.5
2024-01-11T04:01:46.889Z,1013.5
2024-01-11T04:04:46.277Z,1013.4
2024-01-11T04:07:46.844Z,1013.5
2024-01-11T04:09:47.197Z,1013.5
2024-01-11T04:12:46.635Z,1013.5
2024-01-11T04:15:46.381Z,1013.6
2024-01-11T04:17:47.255Z,1013.6
2024-01-11T04:20:46.294Z,1013.6
2024-01-11T04:22:46.961Z,1013.5
2024-01-11T04:25:47.156Z,1013.5
2024-01-11T04:28:46.267Z,1013.5
2024-01-11T04:30:46.547Z,1013.5
2024-01-11T04:33:46.666Z,1013.5
2024-01-11T04:37:46.284Z,1013.5
2024-01-11T04:40:46.262Z,1013.5
2024-01-11T04:43:46.258Z,1013.6
2024-01-11T04:46:46.986Z,1013.6
2024-01-11T04:49:46.287Z,1013.6
2024-01-11T04:52:46.959Z,1013.6
2024-01-11T04:55:46.270Z,1013.6
2024-01-11T04:57:46.820Z,1013.7
2024-01-11T05:00:46.322Z,1013.7
2024-01-11T05:03:46.494Z,1013.7
2024-01-11T05:06:46.284Z,1013.8
2024-01-11T05:09:46.710Z,1013.8
2024-01-11T05:12:47.135Z,1013.8
2024-01-11T05:15:46.344Z,1013.8
2024-01-11T05:17:46.371Z,1013.9
2024-01-11T05:19:46.355Z,1013.9
2024-01-11T05:22:46.241Z,1013.8
2024-01-11T05:24:46.653Z,1013.8
2024-01-11T05:27:46.287Z,1013.9
2024-01-11T05:29:47.089Z,1013.8
2024-01-11T05:32:46.813Z,1013.8
2024-01-11T05:35:46.305Z,1013.9
2024-01-11T05:37:46.750Z,1013.9
2024-01-11T05:40:46.255Z,1013.9
2024-01-11T05:42:46.365Z,1013.9
2024-01-11T05:44:46.262Z,1014
2024-01-11T05:46:46.872Z,1014
2024-01-11T05:48:47.260Z,1014
2024-01-11T05:51:46.275Z,1014.1
2024-01-11T05:53:46.473Z,1014.1
2024-01-11T05:56:46.513Z,1014.1
2024-01-11T05:59:46.541Z,1014.1
2024-01-11T06:01:46.265Z,1014.1
2024-01-11T06:04:49.101Z,1014
2024-01-11T06:06:46.993Z,1014
2024-01-11T06:09:46.302Z,1014
2024-01-11T06:12:46.617Z,1014.1
2024-01-11T06:15:46.942Z,1014.1
2024-01-11T06:18:46.280Z,1014.1
2024-01-11T06:20:46.416Z,1014.2
2024-01-11T06:23:46.903Z,1014.1
2024-01-11T06:26:47.016Z,1014.1
2024-01-11T06:29:46.331Z,1014.1
2024-01-11T06:31:46.340Z,1014.2
2024-01-11T06:34:46.619Z,1014.1
2024-01-11T06:37:46.523Z,1014.1
2024-01-11T06:39:46.647Z,1014.1
2024-01-11T06:42:46.319Z,1014.2
2024-01-11T06:44:46.311Z,1014.2
2024-01-11T06:46:46.305Z,1014.3
2024-01-11T06:49:46.363Z,1014.4
2024-01-11T06:52:46.395Z,1014.5
2024-01-11T06:55:46.533Z,1014.4
2024-01-11T06:58:46.266Z,1014.5
2024-01-11T07:00:46.969Z,1014.6
2024-01-11T07:03:46.311Z,1014.7
2024-01-11T07:05:46.462Z,1014.7
2024-01-11T07:07:46.429Z,1014.7
2024-01-11T07:10:46.937Z,1014.7
2024-01-11T07:12:46.553Z,1014.8
2024-01-11T07:14:46.724Z,1014.8
2024-01-11T07:17:46.748Z,1014.9
2024-01-11T07:20:46.612Z,1014.9
2024-01-11T07:23:46.299Z,1015
2024-01-11T07:25:46.324Z,1014.9
2024-01-11T07:28:46.261Z,1014.9
2024-01-11T07:31:46.689Z,1014.9
2024-01-11T07:33:47.574Z,1015
2024-01-11T07:36:46.280Z,1015
2024-01-11T07:38:46.997Z,1015
2024-01-11T07:41:46.889Z,1015.1
2024-01-11T07:43:49.566Z,1015
2024-01-11T07:46:50.424Z,1015
2024-01-11T07:49:46.388Z,1015.1
2024-01-11T07:52:46.746Z,1015.1
2024-01-11T07:55:46.836Z,1015.1
2024-01-11T07:58:46.889Z,1015.2
2024-01-11T08:00:46.847Z,1015.2
2024-01-11T08:03:51.224Z,1015.2
2024-01-11T08:05:46.428Z,1015.2
2024-01-11T08:07:46.562Z,1015.2
2024-01-11T08:09:47.147Z,1015.2
2024-01-11T08:12:46.344Z,1015.2
2024-01-11T08:14:46.810Z,1015.1
2024-01-11T08:17:47.555Z,1015.2
2024-01-11T08:19:46.602Z,1015.2
2024-01-11T08:22:46.320Z,1015.2
2024-01-11T08:24:47.106Z,1015.2
2024-01-11T08:27:46.327Z,1015.2
2024-01-11T08:30:46.282Z,1015.2
2024-01-11T08:32:46.376Z,1015.2
2024-01-11T08:34:46.532Z,1015.2
2024-01-11T08:37:46.947Z,1015.2
2024-01-11T08:39:47.121Z,1015.2
2024-01-11T08:42:51.238Z,1015.2
2024-01-11T08:44:46.349Z,1015.3
2024-01-11T08:47:46.477Z,1015.3
2024-01-11T08:50:46.257Z,1015.3
2024-01-11T08:52:46.253Z,1015.3
2024-01-11T08:55:47.228Z,1015.2
2024-01-11T08:57:46.916Z,1015.3
2024-01-11T09:00:46.291Z,1015.2
2024-01-11T09:03:46.284Z,1015.3
2024-01-11T09:05:46.736Z,1015.3
2024-01-11T09:08:46.284Z,1015.2
2024-01-11T09:10:46.785Z,1015.2
2024-01-11T09:12:46.865Z,1015.2
2024-01-11T09:15:46.967Z,1015.3
2024-01-11T09:18:46.845Z,1015.2
2024-01-11T09:21:46.663Z,1015.2
2024-01-11T09:24:46.253Z,1015.2
2024-01-11T09:26:46.694Z,1015.1
2024-01-11T09:29:46.519Z,1015.1
2024-01-11T09:31:46.917Z,1015.2
2024-01-11T09:34:46.354Z,1015.2
2024-01-11T09:36:46.868Z,1015.3
2024-01-11T09:39:46.247Z,1015.3
2024-01-11T09:41:46.908Z,1015.2
2024-01-11T09:43:46.909Z,1015.3
2024-01-11T09:46:46.458Z,1015.3
2024-01-11T09:49:46.674Z,1015.3
2024-01-11T09:52:46.234Z,1015.3
2024-01-11T09:54:46.289Z,1015.3
2024-01-11T09:56:46.713Z,1015.3
2024-01-11T09:58:46.786Z,1015.4
2024-01-11T10:01:46.269Z,1015.4
2024-01-11T10:04:46.256Z,1015.4
2024-01-11T10:06:46.643Z,1015.4
2024-01-11T10:09:46.401Z,1015.4
2024-01-11T10:11:46.927Z,1015.4
2024-01-11T10:14:46.413Z,1015.5
2024-01-11T10:16:46.357Z,1015.5
2024-01-11T10:19:46.998Z,1015.5
2024-01-11T10:22:46.842Z,1015.5
2024-01-11T10:25:47.032Z,1015.5
2024-01-11T10:28:46.353Z,1015.5
2024-01-11T10:30:46.991Z,1015.5
2024-01-11T10:33:47.054Z,1015.5
2024-01-11T10:36:46.271Z,1015.5
2024-01-11T10:38:46.930Z,1015.5
2024-01-11T10:40:47.054Z,1015.3
2024-01-11T10:43:47.084Z,1015.3
2024-01-11T10:45:47.109Z,1015.2
2024-01-11T10:48:46.849Z,1015.1
2024-01-11T10:51:46.556Z,1015.1
2024-01-11T10:54:46.977Z,1015.1
2024-01-11T10:56:47.219Z,1015
2024-01-11T10:59:46.395Z,1015.1
2024-01-11T11:01:46.259Z,1015.3
2024-01-11T11:03:46.839Z,1015.4
2024-01-11T11:06:46.363Z,1015.3
2024-01-11T11:08:46.375Z,1015.3
2024-01-11T11:10:46.828Z,1015.3
2024-01-11T11:13:46.274Z,1015.3
2024-01-11T11:15:46.664Z,1015.2
2024-01-11T11:18:46.711Z,1015.2
2024-01-11T11:21:47.070Z,1015.1
2024-01-11T11:24:47.120Z,1015
2024-01-11T11:27:47.094Z,1015
2024-01-11T11:30:47.099Z,1015
2024-01-11T11:33:46.699Z,1015
2024-01-11T11:36:46.824Z,1015
2024-01-11T11:38:47.148Z,1015
2024-01-11T11:41:46.927Z,1014.9
2024-01-11T11:44:46.328Z,1014.8
2024-01-11T11:46:46.993Z,1014.8
2024-01-11T11:49:46.590Z,1014.7
2024-01-11T11:52:46.305Z,1014.8
2024-01-11T11:54:46.727Z,1014.8
2024-01-11T11:57:46.561Z,1014.7
2024-01-11T11:59:46.803Z,1014.7
2024-01-11T12:02:46.397Z,1014.6
2024-01-11T12:04:46.997Z,1014.6
2024-01-11T12:07:46.463Z,1014.6
2024-01-11T12:10:46.234Z,1014.6
2024-01-11T12:12:51.655Z,1014.6
2024-01-11T12:15:47.175Z,1014.6
2024-01-11T12:18:46.982Z,1014.6
2024-01-11T12:20:46.970Z,1014.7
2024-01-11T12:23:46.262Z,1014.7
2024-01-11T12:26:47.629Z,1014.6
2024-01-11T12:29:52.371Z,1014.5
2024-01-11T12:32:48.191Z,1014.4
2024-01-11T12:35:46.730Z,1014.4
2024-01-11T12:38:47.199Z,1014.4
2024-01-11T12:40:47.112Z,1014.3
2024-01-11T12:43:46.316Z,1014.4
2024-01-11T12:46:46.263Z,1014.3
2024-01-11T12:49:46.679Z,1014.3
2024-01-11T12:52:46.225Z,1014.3
2024-01-11T12:54:46.449Z,1014.3
2024-01-11T12:56:46.807Z,1014.2
2024-01-11T12:59:46.281Z,1014.3
2024-01-11T13:01:46.303Z,1014.2
2024-01-11T13:03:46.287Z,1014.3
2024-01-11T13:06:46.656Z,1014.2
2024-01-11T13:09:46.274Z,1014.3
2024-01-11T13:12:51.047Z,1014.3
2024-01-11T13:14:52.368Z,1014.3
2024-01-11T13:16:46.514Z,1014.3
2024-01-11T13:19:46.622Z,1014.2
2024-01-11T13:22:46.684Z,1014.2
2024-01-11T13:25:46.459Z,1014.3
2024-01-11T13:27:46.644Z,1014.2
2024-01-11T13:29:47.004Z,1014.3
2024-01-11T13:32:47.078Z,1014.3
2024-01-11T13:35:47.266Z,1014.3
2024-01-11T13:38:46.780Z,1014.4
2024-01-11T13:41:46.320Z,1014.3
2024-01-11T13:43:46.590Z,1014.3
2024-01-11T13:46:46.335Z,1014.4
2024-01-11T13:48:46.572Z,1014.5
2024-01-11T13:51:50.270Z,1014.5
2024-01-11T13:53:46.391Z,1014.5
2024-01-11T13:55:46.693Z,1014.5
2024-01-11T13:57:46.774Z,1014.5
2024-01-11T14:00:46.310Z,1014.6
2024-01-11T14:03:46.522Z,1014.6
2024-01-11T14:05:46.786Z,1014.6
2024-01-11T14:08:46.535Z,1014.6
2024-01-11T14:11:46.447Z,1014.6
2024-01-11T14:14:46.819Z,1014.6
2024-01-11T14:17:46.567Z,1014.6
2024-01-11T14:19:47.163Z,1014.6
2024-01-11T14:22:46.285Z,1014.6
2024-01-11T14:24:46.737Z,1014.5
2024-01-11T14:27:46.686Z,1014.5
2024-01-11T14:29:46.256Z,1014.5
2024-01-11T14:32:46.540Z,1014.6
2024-01-11T14:34:47.105Z,1014.5
2024-01-11T14:37:46.255Z,1014.5
2024-01-11T14:39:46.335Z,1014.6
2024-01-11T14:41:46.525Z,1014.7
2024-01-11T14:44:46.350Z,1014.7
2024-01-11T14:47:46.379Z,1014.7
2024-01-11T14:49:46.437Z,1014.7
2024-01-11T14:51:47.062Z,1014.7
2024-01-11T14:54:46.274Z,1014.7
2024-01-11T14:56:46.480Z,1014.7
2024-01-11T14:59:46.577Z,1014.7
2024-01-11T15:02:46.352Z,1014.7
2024-01-11T15:05:46.801Z,1014.7
2024-01-11T15:08:46.322Z,1014.7
2024-01-11T15:10:46.329Z,1014.8
2024-01-11T15:13:47.202Z,1014.7
2024-01-11T15:16:46.289Z,1014.7
2024-01-11T15:18:47.193Z,1014.7
2024-01-11T15:21:48.744Z,1014.7
2024-01-11T15:23:46.339Z,1014.7
2024-01-11T15:25:47.145Z,1014.8
2024-01-11T15:28:46.269Z,1014.8
2024-01-11T15:31:46.488Z,1014.7
2024-01-11T15:33:47.178Z,1014.7
2024-01-11T15:36:46.277Z,1014.7
2024-01-11T15:38:46.731Z,1014.7
2024-01-11T15:41:46.326Z,1014.7
2024-01-11T15:43:46.284Z,1014.8
2024-01-11T15:45:46.295Z,1014.8
2024-01-11T15:47:46.514Z,1014.8
2024-01-11T15:50:46.450Z,1014.8
2024-01-11T15:53:46.307Z,1014.8
2024-01-11T15:55:46.584Z,1014.8
2024-01-11T15:58:46.321Z,1014.9
2024-01-11T16:00:47.143Z,1014.9
2024-01-11T16:02:47.465Z,1014.9
2024-01-11T16:05:46.383Z,1014.9
2024-01-11T16:08:46.982Z,1014.9
2024-01-11T16:11:46.556Z,1014.9
2024-01-11T16:14:47.230Z,1014.9
2024-01-11T16:17:46.881Z,1015
2024-01-11T16:20:46.423Z,1015
2024-01-11T16:22:46.288Z,1015.1
2024-01-11T16:25:47.034Z,1015
2024-01-11T16:28:46.272Z,1015
2024-01-11T16:30:46.734Z,1015
2024-01-11T16:32:46.740Z,1015
2024-01-11T16:35:49.722Z,1014.9
2024-01-11T16:37:46.293Z,1014.9
2024-01-11T16:39:46.317Z,1014.8
2024-01-11T16:42:46.725Z,1014.9
2024-01-11T16:45:46.240Z,1014.8
2024-01-11T16:47:46.566Z,1014.9
2024-01-11T16:50:46.407Z,1015
2024-01-11T16:52:47.060Z,1015
2024-01-11T16:56:46.329Z,1015.1
2024-01-11T16:58:46.758Z,1015.1
2024-01-11T17:00:48.131Z,1015.2
2024-01-11T17:03:46.262Z,1015.2
2024-01-11T17:05:46.469Z,1015.3
2024-01-11T17:07:46.487Z,1015.3
2024-01-11T17:09:46.666Z,1015.2
2024-01-11T17:12:46.763Z,1015.3
2024-01-11T17:15:46.858Z,1015.3
2024-01-11T17:18:46.357Z,1015.4
2024-01-11T17:21:46.390Z,1015.4
2024-01-11T17:24:46.249Z,1015.4
2024-01-11T17:26:46.292Z,1015.4
2024-01-11T17:29:46.316Z,1015.3
2024-01-11T17:31:46.319Z,1015.3
2024-01-11T17:33:47.780Z,1015.3
2024-01-11T17:35:46.645Z,1015.3
2024-01-11T17:37:47.002Z,1015.3
2024-01-11T17:40:46.500Z,1015.3
2024-01-11T17:43:47.064Z,1015.4
2024-01-11T17:46:46.304Z,1015.5
2024-01-11T17:48:46.715Z,1015.4
2024-01-11T17:50:47.227Z,1015.4
2024-01-11T17:53:46.497Z,1015.5
2024-01-11T17:55:47.006Z,1015.4
2024-01-11T17:58:47.122Z,1015.4
2024-01-11T18:00:47.270Z,1015.4
2024-01-11T18:03:46.357Z,1015.4
2024-01-11T18:06:52.212Z,1015.5
2024-01-11T18:09:46.253Z,1015.5
2024-01-11T18:11:46.779Z,1015.5
2024-01-11T18:14:47.163Z,1015.5
2024-01-11T18:17:46.426Z,1015.5
2024-01-11T18:20:46.322Z,1015.5
2024-01-11T18:22:46.326Z,1015.6
2024-01-11T18:25:47.357Z,1015.5
2024-01-11T18:27:46.300Z,1015.4
2024-01-11T18:29:46.311Z,1015.4
2024-01-11T18:32:46.285Z,1015.4
2024-01-11T18:34:46.355Z,1015.4
2024-01-11T18:36:46.943Z,1015.4
2024-01-11T18:39:46.418Z,1015.3
2024-01-11T18:41:47.032Z,1015.2
2024-01-11T18:44:46.351Z,1015.3
2024-01-11T18:47:46.360Z,1015.3
2024-01-11T18:49:47.075Z,1015.3
2024-01-11T18:52:46.706Z,1015.2
2024-01-11T18:54:51.085Z,1015.3
2024-01-11T18:57:52.091Z,1015.4
2024-01-11T19:00:46.797Z,1015.4
2024-01-11T19:03:47.053Z,1015.3
2024-01-11T19:06:46.816Z,1015.3
2024-01-11T19:09:46.944Z,1015.4
2024-01-11T19:12:46.280Z,1015.3
2024-01-11T19:14:47.111Z,1015.3
2024-01-11T19:17:46.777Z,1015.4
2024-01-11T19:20:46.398Z,1015.4
2024-01-11T19:23:46.264Z,1015.4
2024-01-11T19:26:46.658Z,1015.4
2024-01-11T19:29:46.981Z,1015.4
2024-01-11T19:32:46.416Z,1015.4
2024-01-11T19:34:46.386Z,1015.5
2024-01-11T19:37:46.283Z,1015.5
2024-01-11T19:39:46.294Z,1015.5
2024-01-11T19:41:46.321Z,1015.5
2024-01-11T19:44:46.394Z,1015.5
2024-01-11T19:47:46.393Z,1015.5
2024-01-11T19:50:46.628Z,1015.5
2024-01-11T19:53:46.996Z,1015.5
2024-01-11T19:56:47.069Z,1015.5
2024-01-11T19:59:46.365Z,1015.5
2024-01-11T20:01:47.181Z,1015.5
2024-01-11T20:04:47.053Z,1015.5
2024-01-11T20:07:46.291Z,1015.6
2024-01-11T20:10:46.267Z,1015.7
2024-01-11T20:13:47.030Z,1015.7
2024-01-11T20:16:46.276Z,1015.7
2024-01-11T20:19:46.491Z,1015.8
2024-01-11T20:21:46.862Z,1015.8
2024-01-11T20:24:46.383Z,1015.9
2024-01-11T20:26:47.160Z,1015.9
2024-01-11T20:29:46.291Z,1015.9
2024-01-11T20:32:46.389Z,1016
2024-01-11T20:34:46.423Z,1016
2024-01-11T20:36:47.044Z,1016
2024-01-11T20:39:46.371Z,1015.9
2024-01-11T20:42:46.306Z,1015.8
2024-01-11T20:45:46.253Z,1015.9
2024-01-11T20:47:47.144Z,1015.9
2024-01-11T20:50:46.958Z,1015.9
2024-01-11T20:53:46.415Z,1015.9
2024-01-11T20:55:47.205Z,1015.8
2024-01-11T20:58:46.477Z,1015.8
2024-01-11T21:01:47.393Z,1015.9
2024-01-11T21:04:46.916Z,1015.8
2024-01-11T21:07:46.266Z,1015.8
2024-01-11T21:09:46.494Z,1015.8
2024-01-11T21:12:46.698Z,1015.8
2024-01-11T21:15:46.550Z,1015.8
2024-01-11T21:18:46.433Z,1015.8
2024-01-11T21:21:47.092Z,1015.8
2024-01-11T21:24:46.505Z,1015.8
2024-01-11T21:27:46.772Z,1015.8
2024-01-11T21:30:46.352Z,1015.7
2024-01-11T21:32:46.733Z,1015.7
2024-01-11T21:35:47.004Z,1015.8
2024-01-11T21:38:46.379Z,1015.7
2024-01-11T21:40:46.787Z,1015.8
2024-01-11T21:43:46.330Z,1015.7
2024-01-11T21:45:47.103Z,1015.7
2024-01-11T21:47:49.362Z,1015.6
2024-01-11T21:50:46.314Z,1015.6
2024-01-11T21:52:46.778Z,1015.6
2024-01-11T21:55:46.352Z,1015.6
2024-01-11T21:57:47.124Z,1015.5
2024-01-11T22:00:46.904Z,1015.6
2024-01-11T22:03:47.021Z,1015.6
2024-01-11T22:06:46.373Z,1015.6
2024-01-11T22:08:46.501Z,1015.8
2024-01-11T22:11:46.511Z,1015.8
2024-01-11T22:14:46.289Z,1015.8
2024-01-11T22:16:46.366Z,1015.8
2024-01-11T22:19:46.553Z,1015.9
2024-01-11T22:22:47.065Z,1015.9
2024-01-11T22:25:46.483Z,1015.9
2024-01-11T22:28:46.290Z,1015.9
2024-01-11T22:30:46.632Z,1015.9
2024-01-11T22:33:46.475Z,1015.9
2024-01-11T22:35:46.780Z,1016
2024-01-11T22:38:46.540Z,1016
2024-01-11T22:40:46.564Z,1016
2024-01-11T22:43:47.229Z,1016
2024-01-11T22:46:46.305Z,1016.1
2024-01-11T22:48:46.782Z,1016.1
2024-01-11T22:51:46.645Z,1016.1
2024-01-11T22:54:46.290Z,1016.2
2024-01-11T22:57:46.829Z,1016.2
2024-01-11T23:00:46.252Z,1016.2
2024-01-11T23:02:46.288Z,1016.3
2024-01-11T23:04:46.896Z,1016.3
2024-01-11T23:07:46.264Z,1016.3
2024-01-11T23:10:46.279Z,1016.2
2024-01-11T23:12:46.985Z,1016.2
2024-01-11T23:15:46.272Z,1016.1
2024-01-11T23:17:46.367Z,1016.1
2024-01-11T23:19:46.394Z,1016.1
2024-01-11T23:22:47.135Z,1016
2024-01-11T23:25:46.314Z,1016
2024-01-11T23:27:46.394Z,1016
2024-01-11T23:30:46.537Z,1016
2024-01-11T23:33:47.286Z,1016.1
2024-01-11T23:36:46.704Z,1016.1
2024-01-11T23:39:46.261Z,1016.1
2024-01-11T23:41:46.421Z,1016.1
2024-01-11T23:43:47.160Z,1016.1
2024-01-11T23:46:46.236Z,1016.1
2024-01-11T23:48:46.351Z,1016.2
2024-01-11T23:50:46.409Z,1016.2
2024-01-11T23:53:46.353Z,1016.2
2024-01-11T23:56:47.164Z,1016.1
2024-01-11T23:59:46.748Z,1016
